Time;durP1;ratioP1;P1;durP2;ratioP2;P2;SDS_P1;SDS_P2;PMS_P1;PMS_P2;Temp;Humidity;BMP_temperature;BMP_pressure;BME280_temperature;BME280_humidity;BME280_pressure;Samples;Min_cycle;Max_cycle;Signal;HPM_P1;HPM_P2
2023/05/25 00:01:36;;;;;;;9.85;6.55;;;;;;;15.80;100.00;98233.50;5138905;28;20071;-56
2023/05/25 00:04:02;;;;;;;9.77;6.57;;;;;;;15.68;100.00;98234.88;5138718;28;20051;-53
2023/05/25 00:06:29;;;;;;;11.52;6.45;;;;;;;15.62;100.00;98238.50;5138914;27;20075;-51
2023/05/25 00:08:56;;;;;;;14.65;6.88;;;;;;;15.54;100.00;98237.84;5138575;28;20051;-61
2023/05/25 00:11:22;;;;;;;12.00;6.40;;;;;;;15.52;100.00;98237.47;5138541;28;20051;-51
2023/05/25 00:13:49;;;;;;;9.68;7.05;;;;;;;15.50;100.00;98246.22;5138574;28;20332;-60
2023/05/25 00:16:15;;;;;;;17.40;7.38;;;;;;;15.57;100.00;98248.06;5138440;28;20051;-52
2023/05/25 00:18:42;;;;;;;14.10;6.43;;;;;;;15.51;100.00;98246.97;5138361;28;20055;-60
2023/05/25 00:21:08;;;;;;;11.88;7.15;;;;;;;15.46;100.00;98261.25;5138325;28;20062;-57
2023/05/25 00:23:34;;;;;;;11.95;7.20;;;;;;;15.43;100.00;98253.84;5138173;27;20051;-61
2023/05/25 00:26:03;;;;;;;10.13;6.03;;;;;;;15.43;100.00;98254.63;5138271;28;20058;-56
2023/05/25 00:28:29;;;;;;;10.13;6.55;;;;;;;15.46;100.00;98256.53;5138474;28;20105;-57
2023/05/25 00:30:55;;;;;;;13.82;7.22;;;;;;;15.50;100.00;98260.03;5138273;28;20478;-54
2023/05/25 00:33:21;;;;;;;11.65;8.23;;;;;;;15.40;100.00;98262.97;5138356;28;20162;-54
2023/05/25 00:35:47;;;;;;;15.38;6.82;;;;;;;15.49;100.00;98261.22;5138157;27;20043;-54
2023/05/25 00:38:13;;;;;;;12.00;6.47;;;;;;;15.40;100.00;98260.19;5138135;28;20126;-55
2023/05/25 00:40:40;;;;;;;7.85;6.45;;;;;;;15.32;100.00;98258.72;5138044;28;20043;-62
2023/05/25 00:43:07;;;;;;;13.07;6.75;;;;;;;15.21;100.00;98265.19;5137521;27;20150;-61
2023/05/25 00:45:33;;;;;;;11.93;6.50;;;;;;;15.11;100.00;98276.41;5137717;28;20138;-62
2023/05/25 00:48:00;;;;;;;9.95;6.32;;;;;;;15.13;100.00;98282.28;5138085;28;20047;-63
2023/05/25 00:50:36;;;;;;;13.20;7.18;;;;;;;15.07;100.00;98284.75;5137767;28;20043;-57
2023/05/25 00:53:03;;;;;;;13.60;7.00;;;;;;;15.10;100.00;98291.41;5138092;28;20051;-60
2023/05/25 00:55:35;;;;;;;10.30;6.30;;;;;;;15.02;100.00;98305.28;5137742;28;20146;-54
2023/05/25 00:58:03;;;;;;;14.40;6.57;;;;;;;14.99;100.00;98297.06;5137942;28;20063;-62
2023/05/25 01:00:31;;;;;;;12.13;6.50;;;;;;;14.98;100.00;98292.75;5137894;27;20142;-58
2023/05/25 01:02:59;;;;;;;8.95;6.72;;;;;;;14.88;100.00;98313.78;5137921;28;20138;-57
2023/05/25 01:05:27;;;;;;;10.65;8.73;;;;;;;14.79;100.00;98333.63;5137575;27;20137;-58
2023/05/25 01:07:56;;;;;;;10.00;6.70;;;;;;;14.76;100.00;98347.44;5137616;28;20051;-58
2023/05/25 01:10:23;;;;;;;10.95;6.75;;;;;;;14.67;100.00;98358.97;5137682;28;20054;-57
2023/05/25 01:12:52;;;;;;;10.38;6.25;;;;;;;14.66;100.00;98396.03;5137488;28;20051;-61
2023/05/25 01:15:19;;;;;;;17.75;6.65;;;;;;;14.64;100.00;98389.38;5137801;28;20137;-53
2023/05/25 01:17:45;;;;;;;14.70;6.70;;;;;;;14.61;100.00;98401.22;5137385;28;20364;-56
2023/05/25 01:20:12;;;;;;;10.05;6.65;;;;;;;14.56;100.00;98410.69;5137367;28;20074;-58
2023/05/25 01:22:44;;;;;;;13.13;6.35;;;;;;;14.50;100.00;98415.09;5137569;27;20070;-53
2023/05/25 01:25:14;;;;;;;12.43;6.95;;;;;;;14.41;100.00;98429.34;5137527;28;20137;-53
2023/05/25 01:27:46;;;;;;;8.20;6.50;;;;;;;14.36;100.00;98425.06;5137595;27;20093;-61
2023/05/25 01:30:13;;;;;;;13.88;6.95;;;;;;;14.30;100.00;98453.47;5137279;28;20093;-57
2023/05/25 01:32:40;;;;;;;10.75;6.63;;;;;;;14.30;100.00;98462.53;5137294;28;20090;-54
2023/05/25 01:35:08;;;;;;;10.77;6.72;;;;;;;14.24;100.00;98477.94;5137231;27;20047;-60
2023/05/25 01:37:36;;;;;;;12.60;6.97;;;;;;;14.25;100.00;98493.28;5137251;28;20051;-61
2023/05/25 01:40:04;;;;;;;10.18;7.10;;;;;;;14.21;100.00;98497.28;5137131;27;20082;-59
2023/05/25 01:42:30;;;;;;;17.80;7.13;;;;;;;14.13;100.00;98529.63;5137374;28;20062;-51
2023/05/25 01:44:56;;;;;;;8.45;7.20;;;;;;;14.06;100.00;98527.69;5137052;28;20088;-53
2023/05/25 01:47:28;;;;;;;11.75;7.07;;;;;;;13.98;100.00;98567.50;5137260;28;20046;-62
2023/05/25 01:49:59;;;;;;;8.73;6.85;;;;;;;13.95;100.00;98584.81;5137130;28;20137;-57
2023/05/25 01:52:29;;;;;;;10.63;7.50;;;;;;;13.88;100.00;98590.38;5136959;28;20051;-63
2023/05/25 01:55:02;;;;;;;13.27;7.32;;;;;;;13.81;100.00;98621.50;5138063;27;20133;-56
2023/05/25 01:57:30;;;;;;;10.02;7.53;;;;;;;13.77;100.00;98626.25;5140672;28;20088;-56
2023/05/25 01:59:58;;;;;;;11.35;7.45;;;;;;;13.71;100.00;98633.34;5140651;28;20057;-63
2023/05/25 02:02:25;;;;;;;15.15;7.47;;;;;;;13.70;100.00;98636.50;5140522;28;20043;-59
2023/05/25 02:04:52;;;;;;;14.40;7.90;;;;;;;13.68;100.00;98685.69;5140472;28;20047;-62
2023/05/25 02:07:18;;;;;;;9.93;6.65;;;;;;;13.72;100.00;98680.97;5140317;27;20055;-52
2023/05/25 02:09:44;;;;;;;12.00;10.27;;;;;;;13.76;100.00;98662.44;5140765;28;20074;-58
2023/05/25 02:12:10;;;;;;;12.95;7.60;;;;;;;13.78;100.00;98682.13;5140651;28;20051;-61
2023/05/25 02:14:37;;;;;;;10.10;7.22;;;;;;;13.78;100.00;98669.13;5140461;28;20064;-63
2023/05/25 02:17:03;;;;;;;15.70;7.43;;;;;;;13.85;100.00;98655.31;5140382;28;20523;-60
2023/05/25 02:19:29;;;;;;;10.25;7.63;;;;;;;13.87;100.00;98646.69;5140174;28;20500;-53
2023/05/25 02:21:55;;;;;;;11.60;7.65;;;;;;;13.91;100.00;98619.88;5140365;28;20142;-60
2023/05/25 02:24:23;;;;;;;14.10;7.97;;;;;;;13.91;100.00;98619.09;5140259;28;20146;-62
2023/05/25 02:26:49;;;;;;;12.68;7.15;;;;;;;13.95;100.00;98617.91;5140254;27;20051;-55
2023/05/25 02:29:15;;;;;;;14.15;8.13;;;;;;;13.99;100.00;98629.69;5140169;28;20047;-62
2023/05/25 02:31:42;;;;;;;10.80;7.72;;;;;;;14.08;100.00;98608.00;5140013;28;20219;-54
2023/05/25 02:34:08;;;;;;;10.35;8.02;;;;;;;14.29;100.00;98604.31;5139979;28;20051;-54
2023/05/25 02:36:35;;;;;;;13.38;8.32;;;;;;;14.63;100.00;98536.75;5139908;27;20211;-57
2023/05/25 02:39:01;;;;;;;9.82;7.80;;;;;;;15.06;100.00;98446.03;5140211;28;20255;-53
2023/05/25 02:41:27;;;;;;;13.50;7.97;;;;;;;15.34;100.00;98369.56;5139892;28;20517;-59
2023/05/25 02:43:53;;;;;;;13.07;7.85;;;;;;;15.74;100.00;98312.53;5140140;28;20138;-58
2023/05/25 02:46:19;;;;;;;13.48;7.82;;;;;;;15.92;100.00;98274.31;5139991;28;20051;-53
2023/05/25 02:48:46;;;;;;;11.45;7.28;;;;;;;16.19;100.00;98265.94;5139964;28;20062;-60
2023/05/25 02:51:12;;;;;;;21.67;8.02;;;;;;;16.59;100.00;98259.59;5139854;28;20051;-54
2023/05/25 02:53:38;;;;;;;12.93;8.15;;;;;;;16.65;100.00;98263.44;5139822;28;20435;-55
2023/05/25 02:56:05;;;;;;;13.32;8.02;;;;;;;16.93;100.00;98273.16;5139778;28;20075;-55
2023/05/25 02:58:31;;;;;;;11.23;7.60;;;;;;;17.11;100.00;98292.13;5139623;27;20047;-62
2023/05/25 03:00:58;;;;;;;13.68;7.80;;;;;;;17.35;100.00;98321.25;5139657;28;20087;-62
2023/05/25 03:03:24;;;;;;;11.80;7.57;;;;;;;17.57;100.00;98338.16;5139558;28;20313;-57
2023/05/25 03:05:51;;;;;;;14.05;8.15;;;;;;;17.78;100.00;98366.59;5139126;27;20199;-53
2023/05/25 03:08:17;;;;;;;8.93;7.63;;;;;;;18.03;100.00;98418.72;5139029;28;20047;-56
2023/05/25 03:10:43;;;;;;;9.57;7.40;;;;;;;18.23;100.00;98441.59;5139630;28;20162;-61
2023/05/25 03:13:09;;;;;;;14.02;7.45;;;;;;;18.39;100.00;98484.41;5139556;28;20051;-54
2023/05/25 03:15:35;;;;;;;10.55;7.60;;;;;;;18.49;100.00;98500.81;5139378;28;20139;-55
2023/05/25 03:18:01;;;;;;;12.80;7.57;;;;;;;18.58;100.00;98511.28;5139503;28;20131;-55
2023/05/25 03:20:27;;;;;;;8.23;6.55;;;;;;;18.17;100.00;98500.78;5139332;28;20104;-55
2023/05/25 03:22:54;;;;;;;11.27;7.32;;;;;;;17.96;100.00;98463.22;5139344;28;20146;-60
2023/05/25 03:25:20;;;;;;;13.20;8.02;;;;;;;18.38;100.00;98438.44;5139267;28;20054;-61
2023/05/25 03:27:46;;;;;;;11.70;7.95;;;;;;;18.72;100.00;98482.41;5139271;28;20324;-61
2023/05/25 03:30:13;;;;;;;12.20;7.43;;;;;;;18.86;100.00;98509.81;5139095;28;20135;-57
2023/05/25 03:32:39;;;;;;;12.55;7.72;;;;;;;19.13;100.00;98539.28;5139133;28;20051;-61
2023/05/25 03:35:06;;;;;;;9.50;7.25;;;;;;;19.51;100.00;98559.63;5139033;27;20109;-56
2023/05/25 03:37:31;;;;;;;10.18;7.28;;;;;;;19.78;100.00;98602.25;5139309;28;20056;-54
2023/05/25 03:39:58;;;;;;;8.63;7.07;;;;;;;19.93;100.00;98637.56;5139195;28;20099;-51
2023/05/25 03:42:24;;;;;;;9.27;7.05;;;;;;;20.10;100.00;98656.97;5139166;27;20377;-53
2023/05/25 03:44:50;;;;;;;10.10;6.78;;;;;;;20.42;100.00;98661.56;5138955;28;20051;-52
2023/05/25 03:47:16;;;;;;;10.88;7.28;;;;;;;20.64;100.00;98703.53;5139005;28;20046;-52
2023/05/25 03:49:42;;;;;;;10.68;7.65;;;;;;;20.80;100.00;98709.00;5139059;28;20054;-57
2023/05/25 03:52:08;;;;;;;8.65;7.13;;;;;;;21.01;100.00;98732.63;5139086;28;20146;-59
2023/05/25 03:54:33;;;;;;;10.38;6.57;;;;;;;21.48;100.00;98754.22;5138765;28;20086;-62
2023/05/25 03:57:02;;;;;;;8.05;6.68;;;;;;;21.60;100.00;98769.41;5138870;28;20138;-61
2023/05/25 03:59:28;;;;;;;12.65;7.32;;;;;;;21.80;100.00;98792.22;5138699;28;20074;-62
2023/05/25 04:01:54;;;;;;;11.38;6.75;;;;;;;21.81;100.00;98818.88;5138646;28;20130;-58
2023/05/25 04:04:20;;;;;;;10.25;7.70;;;;;;;22.03;100.00;98809.81;5138514;27;20138;-59
2023/05/25 04:06:47;;;;;;;19.73;7.32;;;;;;;22.08;100.00;98812.78;5138718;27;20086;-54
2023/05/25 04:09:13;;;;;;;23.45;7.57;;;;;;;22.36;100.00;98804.69;5138758;28;20397;-60
2023/05/25 04:11:40;;;;;;;15.13;7.32;;;;;;;22.16;100.00;98815.34;5138326;28;20144;-56
2023/05/25 04:14:06;;;;;;;17.38;7.38;;;;;;;22.50;100.00;98823.72;5138794;28;20082;-53
2023/05/25 04:16:32;;;;;;;11.18;7.32;;;;;;;22.32;100.00;98823.56;5138503;28;20468;-57
2023/05/25 04:18:58;;;;;;;13.23;8.30;;;;;;;22.60;100.00;98849.72;5138127;27;20047;-60
2023/05/25 04:21:24;;;;;;;10.07;7.38;;;;;;;22.29;100.00;98810.50;5138365;28;20093;-60
2023/05/25 04:23:50;;;;;;;12.68;7.38;;;;;;;21.94;100.00;98790.97;5138330;28;20108;-62
2023/05/25 04:26:16;;;;;;;9.88;6.65;;;;;;;21.65;100.00;98732.56;5138252;28;20085;-62
2023/05/25 04:28:42;;;;;;;11.45;6.55;;;;;;;21.91;100.00;98744.41;5138247;28;20057;-58
2023/05/25 04:31:08;;;;;;;9.63;6.55;;;;;;;22.16;100.00;98796.63;5138028;28;20047;-53
2023/05/25 04:33:37;;;;;;;8.63;6.30;;;;;;;22.99;100.00;98816.75;5138054;28;20142;-52
2023/05/25 04:36:03;;;;;;;13.60;7.10;;;;;;;23.25;100.00;98864.88;5138300;27;20047;-57
2023/05/25 04:38:29;;;;;;;13.35;6.97;;;;;;;23.69;100.00;98870.38;5138182;28;20138;-61
2023/05/25 04:40:56;;;;;;;13.27;7.07;;;;;;;24.09;100.00;98914.34;5137954;27;20047;-57
2023/05/25 04:43:24;;;;;;;11.60;7.95;;;;;;;24.87;100.00;98933.47;5137899;28;20047;-56
2023/05/25 04:45:50;;;;;;;10.00;7.35;;;;;;;25.48;100.00;98974.88;5137928;28;20066;-54
2023/05/25 04:48:17;;;;;;;11.13;6.25;;;;;;;25.68;100.00;98971.53;5137873;28;20059;-56
2023/05/25 04:50:43;;;;;;;12.68;6.82;;;;;;;25.85;100.00;99000.81;5137753;28;20047;-56
2023/05/25 04:53:09;;;;;;;13.05;7.35;;;;;;;26.32;100.00;98987.34;5137668;28;20066;-60
2023/05/25 04:55:39;;;;;;;6.85;5.75;;;;;;;27.02;82.14;99063.00;5137622;28;20392;-59
2023/05/25 04:58:04;;;;;;;8.82;6.13;;;;;;;26.48;81.78;99065.69;5137587;28;20140;-61
2023/05/25 05:00:31;;;;;;;7.07;6.22;;;;;;;26.46;83.88;99068.97;5137509;28;20232;-59
2023/05/25 05:02:57;;;;;;;13.65;7.72;;;;;;;26.77;92.75;99050.22;5137302;28;20067;-50
2023/05/25 05:05:24;;;;;;;25.25;6.80;;;;;;;27.01;96.44;99036.16;5137223;27;20051;-50
2023/05/25 05:07:50;;;;;;;14.05;6.40;;;;;;;27.30;92.42;99047.50;5137198;27;20094;-50
2023/05/25 05:10:16;;;;;;;11.90;6.43;;;;;;;27.87;86.25;99052.16;5137432;28;20047;-59
2023/05/25 05:12:42;;;;;;;13.73;6.30;;;;;;;28.63;81.13;99066.44;5137294;28;20051;-51
2023/05/25 05:15:09;;;;;;;9.38;5.15;;;;;;;27.83;83.54;99057.19;5137146;28;20331;-48
2023/05/25 05:17:35;;;;;;;11.48;6.32;;;;;;;27.12;84.56;99059.66;5137339;28;20061;-51
2023/05/25 05:20:03;;;;;;;14.55;6.60;;;;;;;26.62;95.10;99041.72;5137251;28;20138;-50
2023/05/25 05:22:32;;;;;;;22.63;6.60;;;;;;;25.94;100.00;99014.06;5137216;28;20047;-56
2023/05/25 05:24:58;;;;;;;38.92;7.45;;;;;;;26.59;100.00;98997.69;5137179;28;20092;-60
2023/05/25 05:27:25;;;;;;;44.58;7.60;;;;;;;27.16;100.00;99004.00;5137019;28;20061;-54
2023/05/25 05:29:50;;;;;;;19.95;6.88;;;;;;;27.52;91.17;99043.53;5136050;27;20091;-55
2023/05/25 05:32:16;;;;;;;9.57;6.05;;;;;;;27.68;78.75;99074.81;5137052;28;20138;-56
2023/05/25 05:34:42;;;;;;;6.07;5.43;;;;;;;28.08;73.37;99073.50;5137184;28;20143;-57
2023/05/25 05:37:08;;;;;;;6.43;4.93;;;;;;;28.80;69.36;99086.41;5136816;27;20432;-59
2023/05/25 05:39:35;;;;;;;7.93;5.00;;;;;;;29.51;65.87;99084.22;5137348;28;20047;-62
2023/05/25 05:42:01;;;;;;;9.07;4.85;;;;;;;30.00;67.27;99088.84;5136786;28;20070;-56
2023/05/25 05:44:27;;;;;;;8.00;4.30;;;;;;;30.06;63.81;99097.38;5136946;28;20051;-52
2023/05/25 05:46:58;;;;;;;5.63;4.15;;;;;;;30.26;61.09;99096.53;5136846;28;20047;-62
2023/05/25 05:49:24;;;;;;;8.43;4.53;;;;;;;30.54;59.76;99105.22;5136794;28;20051;-52
2023/05/25 05:51:50;;;;;;;8.90;4.25;;;;;;;30.80;58.71;99108.00;5136710;28;20059;-61
2023/05/25 05:54:16;;;;;;;9.10;4.32;;;;;;;30.41;58.69;99099.97;5136703;28;20100;-57
2023/05/25 05:56:43;;;;;;;13.20;4.80;;;;;;;30.32;58.08;99108.66;5136901;28;20090;-57
2023/05/25 05:59:10;;;;;;;6.55;4.35;;;;;;;29.96;58.83;99098.84;5136739;28;20126;-60
2023/05/25 06:01:36;;;;;;;8.10;4.20;;;;;;;31.18;58.24;99098.13;5137058;27;20078;-51
2023/05/25 06:04:02;;;;;;;7.05;4.57;;;;;;;31.64;57.61;99101.91;5136845;28;20111;-55
2023/05/25 06:06:28;;;;;;;11.13;4.07;;;;;;;31.27;55.98;99099.97;5136643;27;20492;-60
2023/05/25 06:08:54;;;;;;;10.32;4.70;;;;;;;30.51;56.01;99096.97;5136571;28;20062;-55
2023/05/25 06:11:20;;;;;;;9.35;4.25;;;;;;;30.71;56.74;99094.00;5136585;27;20096;-54
2023/05/25 06:13:46;;;;;;;7.72;4.40;;;;;;;30.01;58.35;99100.91;5136589;28;20100;-53
2023/05/25 06:16:12;;;;;;;6.47;4.10;;;;;;;31.35;57.33;99097.44;5136648;28;20134;-49
2023/05/25 06:18:38;;;;;;;7.80;3.65;;;;;;;31.61;53.63;99094.44;5136684;28;20443;-52
2023/05/25 06:21:05;;;;;;;9.05;3.80;;;;;;;32.19;54.50;99091.97;5136435;28;20075;-55
2023/05/25 06:23:31;;;;;;;8.32;3.70;;;;;;;31.66;52.88;99099.34;5136369;28;20450;-53
2023/05/25 06:25:57;;;;;;;8.30;4.70;;;;;;;31.47;53.60;99098.28;5136306;28;20377;-58
2023/05/25 06:28:23;;;;;;;9.18;4.00;;;;;;;31.84;52.87;99098.09;5136254;28;20066;-60
2023/05/25 06:30:49;;;;;;;4.00;3.60;;;;;;;31.97;51.84;99100.47;5136435;28;20146;-58
2023/05/25 06:33:15;;;;;;;4.95;3.30;;;;;;;32.32;52.09;99100.72;5136523;27;20057;-56
2023/05/25 06:35:41;;;;;;;4.85;3.28;;;;;;;31.93;50.76;99097.88;5136417;27;20142;-54
2023/05/25 06:38:07;;;;;;;6.95;3.30;;;;;;;31.01;54.01;99094.47;5136537;28;20133;-53
2023/05/25 06:40:33;;;;;;;6.65;3.75;;;;;;;30.92;53.76;99089.81;5136262;27;20137;-56
2023/05/25 06:42:59;;;;;;;5.30;3.97;;;;;;;30.23;53.96;99092.66;5138767;28;20130;-59
2023/05/25 06:45:25;;;;;;;8.57;3.90;;;;;;;31.21;53.23;99087.09;5139607;28;20332;-60
2023/05/25 06:47:52;;;;;;;8.05;3.65;;;;;;;31.82;53.91;99092.94;5139595;28;20314;-59
2023/05/25 06:50:18;;;;;;;8.75;3.58;;;;;;;31.75;52.17;99090.59;5139302;28;20363;-60
2023/05/25 06:52:45;;;;;;;6.90;3.83;;;;;;;31.14;52.79;99091.94;5139461;28;20468;-57
2023/05/25 06:55:11;;;;;;;9.98;3.45;;;;;;;31.47;51.97;99092.59;5139410;28;20055;-55
2023/05/25 06:57:37;;;;;;;4.55;3.53;;;;;;;31.88;51.69;99101.47;5139491;28;20106;-59
2023/05/25 07:00:06;;;;;;;9.23;3.17;;;;;;;31.95;51.64;99097.34;5139439;28;20089;-59
2023/05/25 07:02:33;;;;;;;8.45;3.40;;;;;;;32.34;50.05;99091.69;5139540;28;20055;-54
2023/05/25 07:05:01;;;;;;;3.72;3.20;;;;;;;32.42;49.77;99098.41;5139751;28;20187;-62
2023/05/25 07:07:27;;;;;;;8.93;3.92;;;;;;;32.56;49.69;99091.69;5139426;28;20051;-52
2023/05/25 07:09:53;;;;;;;5.38;3.13;;;;;;;33.09;48.60;99097.53;5139416;28;20047;-54
2023/05/25 07:12:19;;;;;;;4.32;2.95;;;;;;;32.57;48.75;99098.16;5139281;28;20138;-58
2023/05/25 07:14:47;;;;;;;4.00;2.70;;;;;;;32.56;48.47;99096.59;5139187;27;20115;-54
2023/05/25 07:17:13;;;;;;;5.72;2.72;;;;;;;32.13;49.57;99090.44;5139033;28;20047;-50
2023/05/25 07:19:39;;;;;;;7.72;3.25;;;;;;;32.55;49.23;99095.81;5139085;28;20092;-58
2023/05/25 07:22:05;;;;;;;4.78;2.85;;;;;;;32.62;48.08;99094.50;5139010;27;20057;-60
2023/05/25 07:24:31;;;;;;;5.45;2.83;;;;;;;33.19;47.26;99097.97;5139117;28;20147;-55
2023/05/25 07:26:57;;;;;;;2.95;2.63;;;;;;;32.59;47.31;99095.56;5138992;27;20508;-53
2023/05/25 07:29:23;;;;;;;4.13;2.83;;;;;;;33.12;47.58;99090.00;5139083;28;20051;-53
2023/05/25 07:31:49;;;;;;;2.90;2.60;;;;;;;33.53;47.31;99090.09;5138955;27;20380;-55
2023/05/25 07:34:15;;;;;;;4.15;2.78;;;;;;;32.91;47.47;99086.69;5138806;28;20043;-59
2023/05/25 07:36:41;;;;;;;7.57;3.13;;;;;;;33.35;47.87;99097.13;5138877;27;20058;-57
2023/05/25 07:39:08;;;;;;;5.80;2.85;;;;;;;33.84;47.52;99085.25;5138841;28;20051;-59
2023/05/25 07:41:34;;;;;;;7.35;2.50;;;;;;;33.96;46.16;99089.56;5138781;28;20138;-53
2023/05/25 07:44:00;;;;;;;6.85;2.70;;;;;;;33.78;45.09;99090.97;5138488;28;20511;-59
2023/05/25 07:46:26;;;;;;;9.45;2.95;;;;;;;34.09;45.14;99089.75;5138666;27;20065;-56
2023/05/25 07:48:53;;;;;;;3.33;2.45;;;;;;;33.38;45.30;99083.94;5138695;28;20332;-60
2023/05/25 07:51:21;;;;;;;2.63;2.10;;;;;;;32.95;46.08;99085.13;5138500;28;20111;-51
2023/05/25 07:53:48;;;;;;;5.72;2.35;;;;;;;32.68;45.61;99081.09;5138279;27;20051;-56
2023/05/25 07:56:14;;;;;;;3.50;2.20;;;;;;;32.09;46.36;99080.09;5139144;28;20051;-59
2023/05/25 07:58:40;;;;;;;6.32;2.60;;;;;;;30.90;47.00;99075.38;5138050;28;20378;-59
2023/05/25 08:01:06;;;;;;;3.38;2.53;;;;;;;32.15;46.50;99082.94;5138083;28;20093;-59
2023/05/25 08:03:32;;;;;;;5.28;2.92;;;;;;;32.49;46.57;99072.38;5138689;28;20294;-55
2023/05/25 08:05:58;;;;;;;8.23;2.47;;;;;;;32.33;46.43;99073.13;5138221;27;20046;-53
2023/05/25 08:08:24;;;;;;;2.67;2.47;;;;;;;32.70;45.68;99081.34;5138333;28;20126;-53
2023/05/25 08:10:50;;;;;;;9.73;2.90;;;;;;;31.72;46.83;99073.84;5138180;28;20099;-59
2023/05/25 08:13:17;;;;;;;6.93;2.92;;;;;;;31.80;47.89;99070.00;5138300;27;20047;-56
2023/05/25 08:15:43;;;;;;;3.75;2.60;;;;;;;32.62;46.57;99077.47;5138061;28;20050;-56
2023/05/25 08:18:08;;;;;;;3.42;2.45;;;;;;;32.22;45.77;99076.72;5138170;28;20047;-54
2023/05/25 08:20:35;;;;;;;5.22;2.30;;;;;;;31.45;45.15;99081.78;5137962;28;20143;-53
2023/05/25 08:23:01;;;;;;;6.18;2.53;;;;;;;32.86;44.56;99076.16;5138089;28;20055;-58
2023/05/25 08:25:27;;;;;;;6.75;2.80;;;;;;;33.18;44.54;99068.81;5137888;28;20457;-52
2023/05/25 08:27:53;;;;;;;6.40;2.80;;;;;;;33.74;44.89;99077.03;5138128;28;20061;-52
2023/05/25 08:30:19;;;;;;;7.90;2.58;;;;;;;33.43;45.22;99068.97;5137843;28;20137;-59
2023/05/25 08:32:45;;;;;;;4.03;2.78;;;;;;;33.82;44.44;99085.00;5138285;28;20181;-59
2023/05/25 08:35:12;;;;;;;6.32;2.60;;;;;;;32.72;45.08;99081.63;5137776;27;20146;-58
2023/05/25 08:37:38;;;;;;;5.82;2.53;;;;;;;33.71;44.27;99078.09;5138307;28;20083;-54
2023/05/25 08:40:07;;;;;;;2.72;2.40;;;;;;;30.87;46.85;99067.13;5137728;28;20092;-53
2023/05/25 08:42:33;;;;;;;8.02;3.00;;;;;;;31.48;46.94;99069.44;5138033;28;20065;-60
2023/05/25 08:45:01;;;;;;;3.88;2.40;;;;;;;31.24;47.94;99064.19;5137966;28;20051;-61
2023/05/25 08:47:31;;;;;;;2.90;2.35;;;;;;;30.18;49.88;99069.97;5137771;28;20142;-53
2023/05/25 08:50:00;;;;;;;3.83;3.00;;;;;;;30.02;49.76;99062.88;5137479;28;20073;-56
2023/05/25 08:52:32;;;;;;;4.10;2.67;;;;;;;30.04;50.73;99065.22;5137362;28;20318;-58
2023/05/25 08:55:03;;;;;;;5.65;2.90;;;;;;;29.95;51.29;99061.28;5137391;28;20051;-60
2023/05/25 08:57:44;;;;;;;7.18;2.80;;;;;;;29.68;51.85;99065.41;5137680;28;20145;-53
2023/05/25 09:00:14;;;;;;;6.07;2.70;;;;;;;29.76;51.97;99058.06;5137439;28;20058;-60
2023/05/25 09:02:44;;;;;;;5.25;2.88;;;;;;;29.54;52.37;99066.28;5137598;28;20086;-54
2023/05/25 09:05:12;;;;;;;4.90;2.65;;;;;;;29.78;52.11;99071.66;5137465;27;20051;-53
2023/05/25 09:07:39;;;;;;;2.95;2.67;;;;;;;29.28;51.73;99066.25;5138076;28;20047;-62
2023/05/25 09:10:07;;;;;;;4.13;3.00;;;;;;;28.86;52.40;99064.69;5137604;27;20043;-58
2023/05/25 09:12:35;;;;;;;7.40;2.80;;;;;;;28.70;52.80;99057.53;5137528;28;20367;-62
2023/05/25 09:15:01;;;;;;;6.95;2.90;;;;;;;28.87;52.41;99063.41;5137791;28;20145;-56
2023/05/25 09:17:27;;;;;;;6.50;3.20;;;;;;;28.43;54.15;99072.03;5137415;28;20146;-63
2023/05/25 09:19:54;;;;;;;6.55;2.80;;;;;;;28.12;56.38;99062.03;5137073;28;20416;-54
2023/05/25 09:22:20;;;;;;;4.65;2.90;;;;;;;27.48;56.87;99062.66;5137118;27;20050;-55
2023/05/25 09:24:47;;;;;;;6.25;3.17;;;;;;;27.61;56.76;99063.94;5137150;28;20116;-53
2023/05/25 09:27:17;;;;;;;9.52;3.20;;;;;;;27.28;59.29;99061.28;5136863;27;20061;-58
2023/05/25 09:29:45;;;;;;;6.55;2.95;;;;;;;27.15;58.97;99055.13;5136919;28;20450;-62
2023/05/25 09:32:11;;;;;;;4.15;2.90;;;;;;;26.68;60.52;99056.66;5136811;28;20054;-60
2023/05/25 09:34:36;;;;;;;3.88;2.92;;;;;;;26.83;61.38;99060.34;5136794;28;20058;-61
2023/05/25 09:37:03;;;;;;;11.05;3.10;;;;;;;26.76;60.60;99063.50;5136847;27;20047;-61
2023/05/25 09:39:29;;;;;;;5.22;3.03;;;;;;;26.39;59.89;99057.25;5136942;28;20104;-53
2023/05/25 09:41:56;;;;;;;9.27;3.20;;;;;;;26.67;58.81;99058.72;5136562;28;20154;-57
2023/05/25 09:44:22;;;;;;;4.07;3.30;;;;;;;26.64;59.53;99056.84;5136728;28;20142;-62
2023/05/25 09:46:47;;;;;;;7.43;3.03;;;;;;;26.50;59.37;99057.56;5136731;28;20051;-55
2023/05/25 09:49:14;;;;;;;9.52;3.20;;;;;;;26.37;62.04;99056.97;5136716;28;20061;-53
2023/05/25 09:51:40;;;;;;;3.97;2.67;;;;;;;26.69;62.36;99052.59;5136519;28;20055;-60
2023/05/25 09:54:09;;;;;;;9.25;3.38;;;;;;;26.72;64.39;99052.44;5136463;27;20075;-64
2023/05/25 09:56:35;;;;;;;5.05;3.38;;;;;;;26.79;60.87;99054.13;5136747;28;20145;-62
2023/05/25 09:59:02;;;;;;;5.57;3.30;;;;;;;27.71;58.28;99055.41;5136898;28;20363;-64
2023/05/25 10:01:28;;;;;;;6.15;3.05;;;;;;;28.56;58.34;99061.97;5136550;28;20175;-60
2023/05/25 10:03:55;;;;;;;7.70;3.00;;;;;;;29.47;55.03;99059.00;5136321;28;20404;-56
2023/05/25 10:06:22;;;;;;;3.80;2.90;;;;;;;29.64;52.00;99061.28;5136180;27;20051;-54
2023/05/25 10:08:48;;;;;;;7.45;2.92;;;;;;;30.28;50.21;99059.28;5136424;28;20427;-61
2023/05/25 10:11:16;;;;;;;4.72;2.85;;;;;;;30.51;50.57;99060.97;5136414;28;20078;-54
2023/05/25 10:13:44;;;;;;;6.75;3.03;;;;;;;30.55;49.49;99058.66;5136749;28;20055;-58
2023/05/25 10:16:16;;;;;;;5.35;2.72;;;;;;;30.29;50.78;99050.31;5137848;27;20043;-64
2023/05/25 10:18:47;;;;;;;7.03;2.95;;;;;;;30.30;50.69;99054.66;5140111;28;20075;-60
2023/05/25 10:21:15;;;;;;;3.38;2.80;;;;;;;30.83;49.38;99050.38;5140225;28;20058;-56
2023/05/25 10:23:46;;;;;;;6.00;2.55;;;;;;;31.56;47.78;99047.06;5139834;28;20443;-57
2023/05/25 10:26:15;;;;;;;7.25;2.60;;;;;;;31.35;48.04;99050.06;5139812;28;20050;-66
2023/05/25 10:28:44;;;;;;;3.20;2.60;;;;;;;30.41;48.56;99045.47;5140116;28;20042;-59
2023/05/25 10:31:11;;;;;;;4.95;2.75;;;;;;;31.83;46.82;99043.47;5139648;28;20323;-55
2023/05/25 10:33:37;;;;;;;5.00;2.67;;;;;;;31.69;46.47;99033.16;5139832;28;20137;-55
2023/05/25 10:36:04;;;;;;;4.45;2.30;;;;;;;30.87;47.56;99036.75;5139719;27;20448;-59
2023/05/25 10:38:31;;;;;;;9.20;2.80;;;;;;;30.07;49.62;99031.06;5139609;28;20055;-62
2023/05/25 10:40:58;;;;;;;2.90;2.63;;;;;;;29.69;48.26;99026.63;5139807;28;20055;-60
2023/05/25 10:43:26;;;;;;;4.15;2.78;;;;;;;29.01;51.16;99034.38;5139900;27;20148;-57
2023/05/25 10:45:54;;;;;;;4.93;2.70;;;;;;;28.88;50.41;99028.28;5139880;28;20108;-55
2023/05/25 10:48:20;;;;;;;10.05;3.28;;;;;;;29.17;51.24;99029.44;5139629;28;20047;-57
2023/05/25 10:50:50;;;;;;;7.90;2.97;;;;;;;29.06;50.01;99030.09;5139362;28;20373;-58
2023/05/25 10:53:15;;;;;;;5.22;3.00;;;;;;;28.99;49.77;99025.59;5139234;28;20147;-57
2023/05/25 10:55:42;;;;;;;6.65;2.65;;;;;;;28.65;51.45;99026.44;5139492;28;20051;-52
2023/05/25 10:58:10;;;;;;;9.25;4.13;;;;;;;28.25;52.85;99017.38;5139150;27;20138;-59
2023/05/25 11:00:37;;;;;;;6.63;3.15;;;;;;;28.49;52.28;99020.09;5139103;28;20136;-57
2023/05/25 11:03:03;;;;;;;5.78;2.85;;;;;;;28.68;52.68;99017.00;5139283;28;20063;-60
2023/05/25 11:05:31;;;;;;;4.43;2.80;;;;;;;28.71;53.13;99028.06;5139491;27;20055;-59
2023/05/25 11:07:58;;;;;;;10.02;3.55;;;;;;;29.14;52.45;99019.13;5139390;28;20051;-56
2023/05/25 11:10:52;;;;;;;5.07;2.55;;;;;;;29.36;51.35;99010.09;5139213;28;20046;-60
2023/05/25 11:13:36;;;;;;;7.55;2.88;;;;;;;29.21;50.75;99011.00;5139080;28;20058;-58
2023/05/25 11:16:13;;;;;;;5.18;2.80;;;;;;;28.64;51.67;99007.97;5135614;28;20102;-59
2023/05/25 11:18:42;;;;;;;6.05;3.20;;;;;;;29.31;50.24;99018.03;5139084;28;20047;-55
2023/05/25 11:21:17;;;;;;;2.95;2.50;;;;;;;28.93;48.96;99018.34;5139022;28;20084;-57
2023/05/25 11:23:54;;;;;;;3.80;2.80;;;;;;;28.52;48.35;99013.44;5139092;28;20103;-57
2023/05/25 11:26:21;;;;;;;5.88;2.90;;;;;;;28.80;48.07;99001.78;5139147;28;20051;-55